createdAt,value
2022-09-21T00:10:27.621Z,2.44
2022-09-21T00:30:33.352Z,2.34
2022-09-21T00:50:39.108Z,2.14
2022-09-21T01:10:44.906Z,1.98
2022-09-21T01:30:50.632Z,2.89
2022-09-21T01:50:56.362Z,2.74
2022-09-21T02:11:02.147Z,2.40
2022-09-21T02:31:07.952Z,2.52
2022-09-21T02:51:13.639Z,2.57
2022-09-21T03:11:19.385Z,2.73
2022-09-21T03:31:25.192Z,2.93
2022-09-21T03:51:30.858Z,5.09
2022-09-21T04:11:36.595Z,5.50
2022-09-21T04:31:42.333Z,4.41
2022-09-21T04:51:48.075Z,9.73
2022-09-21T05:11:53.803Z,6.82
2022-09-21T05:31:59.524Z,6.22
2022-09-21T05:52:05.250Z,5.41
2022-09-21T06:12:11.009Z,6.61
2022-09-21T06:32:16.748Z,7.28
2022-09-21T06:52:22.484Z,4.58
2022-09-21T07:12:28.239Z,4.57
2022-09-21T07:32:34.004Z,4.31
2022-09-21T07:52:39.755Z,4.19
2022-09-21T08:12:45.568Z,4.21
2022-09-21T08:32:52.003Z,3.53
2022-09-21T08:52:56.675Z,3.20
2022-09-21T09:13:02.445Z,3.67
2022-09-21T09:33:08.188Z,3.28
2022-09-21T09:53:14.012Z,2.90
2022-09-21T10:13:19.819Z,3.25
2022-09-21T10:33:25.707Z,2.74
2022-09-21T10:53:31.951Z,2.39
2022-09-21T11:13:37.743Z,1.95
2022-09-21T11:33:43.472Z,2.66
2022-09-21T11:53:49.713Z,2.31
2022-09-21T12:13:55.918Z,1.83
2022-09-21T12:34:02.145Z,1.45
2022-09-21T12:54:08.386Z,1.37
2022-09-21T13:14:14.620Z,1.06
2022-09-21T13:34:20.831Z,1.01
2022-09-21T13:54:27.080Z,1.14
2022-09-21T14:14:32.842Z,1.00
2022-09-21T14:34:38.627Z,0.90
2022-09-21T14:54:44.835Z,0.96
2022-09-21T15:14:51.112Z,0.88
2022-09-21T15:34:57.308Z,0.79
2022-09-21T15:55:03.061Z,0.73
2022-09-21T16:15:09.321Z,0.72
2022-09-21T16:35:15.560Z,0.80
2022-09-21T16:55:24.414Z,1.40
2022-09-21T17:15:27.112Z,0.94
2022-09-21T17:35:32.916Z,1.09
2022-09-21T17:55:38.666Z,1.57
2022-09-21T18:15:44.490Z,1.39
2022-09-21T18:35:50.268Z,1.84
2022-09-21T18:55:56.094Z,1.50
2022-09-21T19:16:02.001Z,1.94
2022-09-21T19:36:07.742Z,1.75
2022-09-21T19:56:13.463Z,1.74
2022-09-21T20:16:19.416Z,1.59
2022-09-21T20:36:25.056Z,1.64
2022-09-21T20:56:30.819Z,1.52
2022-09-21T21:16:36.637Z,1.89
2022-09-21T21:36:42.399Z,1.96
2022-09-21T21:56:48.142Z,2.36
2022-09-21T22:16:54.017Z,2.50
2022-09-21T22:36:59.702Z,3.08
2022-09-21T22:57:05.446Z,3.06
2022-09-21T23:17:11.293Z,2.98
2022-09-21T23:37:17.155Z,2.83
2022-09-21T23:57:23.016Z,2.97
